createdAt,value
2023-01-13T00:01:33.145Z,99260.31
2023-01-13T00:04:02.226Z,99256.63
2023-01-13T00:06:30.683Z,99251.09
2023-01-13T00:08:59.304Z,99250.06
2023-01-13T00:11:27.786Z,99256.78
2023-01-13T00:13:56.369Z,99257.41
2023-01-13T00:16:24.536Z,99253.28
2023-01-13T00:18:53.529Z,99246.31
2023-01-13T00:21:25.130Z,99256.13
2023-01-13T00:23:55.550Z,99246.09
2023-01-13T00:26:30.666Z,99248.16
2023-01-13T00:29:00.246Z,99254.09
2023-01-13T00:31:30.380Z,99245.75
2023-01-13T00:34:02.969Z,99239.78
2023-01-13T00:36:31.626Z,99250.84
2023-01-13T00:39:00.441Z,99242.84
2023-01-13T00:41:29.253Z,99252.69
2023-01-13T00:43:56.362Z,99248.59
2023-01-13T00:46:24.822Z,99244.09
2023-01-13T00:48:54.787Z,99237.31
2023-01-13T00:51:23.390Z,99238.72
2023-01-13T00:53:53.190Z,99237.09
2023-01-13T00:56:39.206Z,99232.00
2023-01-13T01:02:08.852Z,99241.59
2023-01-13T01:04:37.639Z,99236.25
2023-01-13T01:07:06.246Z,99228.47
2023-01-13T01:09:34.850Z,99234.81
2023-01-13T01:12:03.507Z,99233.00
2023-01-13T01:14:32.020Z,99234.44
2023-01-13T01:17:00.540Z,99236.69
2023-01-13T01:19:28.668Z,99232.41
2023-01-13T01:21:56.826Z,99222.38
2023-01-13T01:24:25.354Z,99231.59
2023-01-13T01:26:54.077Z,99234.88
2023-01-13T01:29:22.597Z,99235.44
2023-01-13T01:31:51.263Z,99226.88
2023-01-13T01:34:19.457Z,99229.94
2023-01-13T01:36:47.659Z,99228.50
2023-01-13T01:39:15.953Z,99223.34
2023-01-13T01:42:04.685Z,99222.75
2023-01-13T01:44:43.923Z,99219.88
2023-01-13T01:47:16.319Z,99205.13
2023-01-13T01:49:46.013Z,99214.34
2023-01-13T01:52:33.420Z,99203.47
2023-01-13T01:55:20.505Z,99217.63
2023-01-13T01:57:55.245Z,99203.28
2023-01-13T02:00:24.109Z,99200.81
2023-01-13T02:02:53.647Z,99190.16
2023-01-13T02:05:23.496Z,99190.78
2023-01-13T02:07:54.775Z,99187.31
2023-01-13T02:10:27.706Z,99188.13
2023-01-13T02:13:01.063Z,99175.41
2023-01-13T02:15:52.834Z,99175.41
2023-01-13T02:18:35.736Z,99178.91
2023-01-13T02:21:31.380Z,99177.25
2023-01-13T02:24:49.840Z,99172.16
2023-01-13T02:27:54.269Z,99174.59
2023-01-13T02:31:25.146Z,99169.09
2023-01-13T02:34:11.718Z,99169.06
2023-01-13T02:36:57.126Z,99170.09
2023-01-13T02:39:58.276Z,99167.03
2023-01-13T02:42:52.816Z,99163.13
2023-01-13T02:45:39.722Z,99173.59
2023-01-13T02:48:10.320Z,99160.09
2023-01-13T02:51:21.021Z,99153.94
2023-01-13T02:54:00.921Z,99146.75
2023-01-13T02:56:31.365Z,99136.47
2023-01-13T02:59:01.144Z,99138.94
2023-01-13T03:01:29.998Z,99138.53
2023-01-13T03:03:58.144Z,99143.03
2023-01-13T03:06:55.091Z,99138.34
2023-01-13T03:09:34.487Z,99131.38
2023-01-13T03:12:22.972Z,99128.09
2023-01-13T03:15:37.165Z,99126.88
2023-01-13T03:18:25.851Z,99131.56
2023-01-13T03:21:11.085Z,99128.47
2023-01-13T03:23:52.503Z,99135.28
2023-01-13T03:27:15.765Z,99123.56
2023-01-13T03:29:58.606Z,99140.59
2023-01-13T03:32:38.180Z,99134.03
2023-01-13T03:35:28.296Z,99139.38
2023-01-13T03:38:16.362Z,99134.63
2023-01-13T03:40:55.190Z,99140.59
2023-01-13T03:43:49.016Z,99142.44
2023-01-13T03:46:47.236Z,99138.34
2023-01-13T03:49:21.853Z,99153.31
2023-01-13T03:51:58.532Z,99143.69
2023-01-13T03:54:32.258Z,99155.78
2023-01-13T03:57:11.560Z,99156.38
2023-01-13T03:59:44.542Z,99155.97
2023-01-13T04:02:49.427Z,99169.91
2023-01-13T04:05:19.268Z,99166.63
2023-01-13T04:08:07.974Z,99160.50
2023-01-13T04:10:54.838Z,99158.44
2023-01-13T04:13:27.647Z,99165.00
2023-01-13T04:15:56.293Z,99177.28
2023-01-13T04:18:30.432Z,99167.44
2023-01-13T04:21:01.584Z,99169.50
2023-01-13T04:23:30.476Z,99178.09
2023-01-13T04:26:00.419Z,99170.94
2023-01-13T04:28:29.007Z,99182.59
2023-01-13T04:30:57.863Z,99173.41
2023-01-13T04:33:26.046Z,99177.91
2023-01-13T04:35:55.233Z,99180.34
2023-01-13T04:38:23.883Z,99176.25
2023-01-13T04:40:52.146Z,99172.16
2023-01-13T04:43:20.237Z,99174.41
2023-01-13T04:45:48.307Z,99171.31
2023-01-13T04:48:16.425Z,99164.97
2023-01-13T04:50:44.518Z,99169.91
2023-01-13T04:53:12.643Z,99164.75
2023-01-13T04:55:44.459Z,99163.50
2023-01-13T04:58:13.317Z,99165.38
2023-01-13T05:00:41.879Z,99168.22
2023-01-13T05:03:10.366Z,99172.56
2023-01-13T05:05:39.126Z,99172.56
2023-01-13T05:08:09.002Z,99160.06
2023-01-13T05:10:37.229Z,99166.19
2023-01-13T05:13:22.910Z,99160.84
2023-01-13T05:16:11.263Z,99169.91
2023-01-13T05:18:39.568Z,99168.84
2023-01-13T05:21:27.817Z,99166.19
2023-01-13T05:24:17.231Z,99154.31
2023-01-13T05:26:45.838Z,99161.28
2023-01-13T05:29:14.042Z,99162.75
2023-01-13T05:31:42.539Z,99156.78
2023-01-13T05:34:11.058Z,99155.34
2023-01-13T05:36:39.588Z,99146.94
2023-01-13T05:39:08.837Z,99156.59
2023-01-13T05:41:54.384Z,99148.78
2023-01-13T05:44:22.506Z,99157.81
2023-01-13T05:46:51.162Z,99150.63
2023-01-13T05:49:19.675Z,99153.28
2023-01-13T05:51:49.776Z,99151.03
2023-01-13T05:54:17.874Z,99153.91
2023-01-13T05:56:46.336Z,99143.25
2023-01-13T05:59:14.480Z,99144.50
2023-01-13T06:01:42.769Z,99152.50
2023-01-13T06:04:10.924Z,99150.41
2023-01-13T06:06:39.409Z,99145.50
2023-01-13T06:09:07.850Z,99139.94
2023-01-13T06:11:36.290Z,99131.34
2023-01-13T06:14:04.521Z,99134.22
2023-01-13T06:16:32.700Z,99133.41
2023-01-13T06:19:00.783Z,99127.44
2023-01-13T06:21:28.797Z,99129.69
2023-01-13T06:23:57.265Z,99132.38
2023-01-13T06:26:29.289Z,99139.75
2023-01-13T06:28:57.822Z,99127.25
2023-01-13T06:31:28.737Z,99132.78
2023-01-13T06:34:04.022Z,99136.69
2023-01-13T06:36:40.639Z,99129.28
2023-01-13T06:39:10.849Z,99139.75
2023-01-13T06:41:56.364Z,99146.50
2023-01-13T06:44:25.586Z,99155.94
2023-01-13T06:46:54.186Z,99188.47
2023-01-13T06:49:22.361Z,99195.03
2023-01-13T06:51:50.853Z,99210.31
2023-01-13T06:54:18.978Z,99211.72
2023-01-13T06:56:47.111Z,99220.34
2023-01-13T06:59:15.224Z,99216.31
2023-01-13T07:01:43.577Z,99223.53
2023-01-13T07:04:12.300Z,99204.53
2023-01-13T07:06:40.353Z,99214.38
2023-01-13T07:09:08.481Z,99228.75
2023-01-13T07:11:36.555Z,99223.47
2023-01-13T07:14:24.240Z,99223.06
2023-01-13T07:16:54.196Z,99224.25
2023-01-13T07:19:24.263Z,99224.00
2023-01-13T07:21:53.423Z,99236.00
2023-01-13T07:24:22.487Z,99247.00
2023-01-13T07:26:52.477Z,99258.59
2023-01-13T07:29:21.021Z,99261.84
2023-01-13T07:31:50.492Z,99264.50
2023-01-13T07:34:19.067Z,99279.59
2023-01-13T07:36:47.591Z,99285.34
2023-01-13T07:39:15.792Z,99280.97
2023-01-13T07:42:01.833Z,99283.06
2023-01-13T07:44:30.017Z,99290.75
2023-01-13T07:46:58.536Z,99275.03
2023-01-13T07:49:27.005Z,99276.22
2023-01-13T07:51:55.484Z,99287.47
2023-01-13T07:54:35.080Z,99290.28
2023-01-13T07:57:08.139Z,99278.88
2023-01-13T07:59:36.895Z,99295.59
2023-01-13T08:02:05.228Z,99299.75
2023-01-13T08:04:33.533Z,99284.56
2023-01-13T08:07:02.191Z,99271.44
2023-01-13T08:09:30.284Z,99261.75
2023-01-13T08:12:12.723Z,99263.94
2023-01-13T08:14:40.910Z,99255.34
2023-01-13T08:17:10.706Z,99242.28
2023-01-13T08:19:38.848Z,99245.72
2023-01-13T08:22:07.322Z,99230.63
2023-01-13T08:24:35.466Z,99221.84
2023-01-13T08:27:03.971Z,99217.56
2023-01-13T08:29:32.128Z,99210.06
2023-01-13T08:32:00.280Z,99187.00
2023-01-13T08:34:28.722Z,99220.47
2023-01-13T08:36:57.159Z,99243.91
2023-01-13T08:39:25.908Z,99270.28
2023-01-13T08:41:56.775Z,99293.50
2023-01-13T08:44:30.678Z,99300.09
2023-01-13T08:46:59.732Z,99303.09
2023-01-13T08:49:28.185Z,99317.00
2023-01-13T08:51:56.361Z,99310.06
2023-01-13T08:54:24.483Z,99317.22
2023-01-13T08:56:53.194Z,99313.91
2023-01-13T08:59:21.817Z,99312.44
2023-01-13T09:01:50.389Z,99304.41
2023-01-13T09:04:22.952Z,99294.41
2023-01-13T09:06:51.917Z,99276.66
2023-01-13T09:09:20.848Z,99277.75
2023-01-13T09:12:09.334Z,99292.69
2023-01-13T09:14:39.485Z,99309.59
2023-01-13T09:17:08.600Z,99322.25
2023-01-13T09:19:37.209Z,99338.78
2023-01-13T09:22:05.776Z,99333.31
2023-01-13T09:24:34.014Z,99338.25
2023-01-13T09:27:02.464Z,99329.75
2023-01-13T09:29:30.842Z,99320.97
2023-01-13T09:31:59.480Z,99290.75
2023-01-13T09:34:45.430Z,99264.19
2023-01-13T09:37:14.011Z,99270.72
2023-01-13T09:39:42.082Z,99265.41
2023-01-13T09:43:03.880Z,99277.69
2023-01-13T09:45:43.604Z,99274.72
2023-01-13T09:48:28.190Z,99284.19
2023-01-13T09:51:16.846Z,99289.66
2023-01-13T09:54:03.308Z,99288.28
2023-01-13T09:56:31.712Z,99292.78
2023-01-13T09:59:00.244Z,99298.53
2023-01-13T10:01:54.792Z,99296.88
2023-01-13T10:04:23.081Z,99286.72
2023-01-13T10:06:57.395Z,99291.56
2023-01-13T10:09:52.835Z,99291.88
2023-01-13T10:12:43.728Z,99296.22
2023-01-13T10:15:23.108Z,99301.63
2023-01-13T10:18:20.823Z,99305.56
2023-01-13T10:21:27.091Z,99312.16
2023-01-13T10:24:08.679Z,99309.06
2023-01-13T10:27:05.075Z,99316.56
2023-01-13T10:29:34.683Z,99307.97
2023-01-13T10:32:02.822Z,99309.78
2023-01-13T10:34:31.471Z,99310.16
2023-01-13T10:37:06.380Z,99316.72
2023-01-13T10:39:48.217Z,99320.03
2023-01-13T10:42:22.980Z,99327.25
2023-01-13T10:45:01.026Z,99342.56
2023-01-13T10:47:37.019Z,99341.38
2023-01-13T10:50:13.985Z,99335.69
2023-01-13T10:53:16.558Z,99329.75
2023-01-13T10:56:00.116Z,99333.19
2023-01-13T10:58:28.632Z,99343.66
2023-01-13T11:01:07.205Z,99342.28
2023-01-13T11:03:41.763Z,99340.47
2023-01-13T11:06:21.387Z,99347.84
2023-01-13T11:08:52.483Z,99347.31
2023-01-13T11:11:44.900Z,99345.47
2023-01-13T11:14:41.718Z,99342.16
2023-01-13T11:17:29.574Z,99349.59
2023-01-13T11:20:13.007Z,99335.19
2023-01-13T11:22:55.704Z,99346.63
2023-01-13T11:25:43.052Z,99340.66
2023-01-13T11:28:32.922Z,99334.34
2023-01-13T11:31:07.128Z,99333.16
2023-01-13T11:34:03.489Z,99335.25
2023-01-13T11:36:47.726Z,99332.69
2023-01-13T11:39:57.888Z,99321.69
2023-01-13T11:43:11.738Z,99323.13
2023-01-13T11:45:49.032Z,99327.31
2023-01-13T11:48:22.349Z,99328.41
2023-01-13T11:51:02.234Z,99332.22
2023-01-13T11:54:29.407Z,99341.19
2023-01-13T11:57:19.410Z,99330.75
2023-01-13T12:00:05.683Z,99329.13
2023-01-13T12:02:45.716Z,99343.28
2023-01-13T12:05:31.426Z,99343.22
2023-01-13T12:08:27.354Z,99345.34
2023-01-13T12:11:19.023Z,99348.81
2023-01-13T12:13:47.020Z,99350.88
2023-01-13T12:16:32.552Z,99350.03
2023-01-13T12:19:21.801Z,99353.03
2023-01-13T12:22:13.985Z,99334.03
2023-01-13T12:24:56.723Z,99353.66
2023-01-13T12:27:47.148Z,99346.94
2023-01-13T12:30:29.823Z,99340.84
2023-01-13T12:33:18.650Z,99341.66
2023-01-13T12:36:00.738Z,99342.50
2023-01-13T12:38:38.932Z,99338.22
2023-01-13T12:42:00.384Z,99327.38
2023-01-13T12:44:27.492Z,99330.81
2023-01-13T12:46:58.840Z,99331.41
2023-01-13T12:49:36.560Z,99334.31
2023-01-13T12:52:12.689Z,99332.69
2023-01-13T12:54:43.955Z,99337.63
2023-01-13T12:57:28.524Z,99334.34
2023-01-13T13:00:10.130Z,99331.75
2023-01-13T13:02:42.150Z,99335.47
2023-01-13T13:05:16.451Z,99323.16
2023-01-13T13:07:52.612Z,99314.72
2023-01-13T13:10:31.881Z,99310.28
2023-01-13T13:13:20.369Z,99318.41
2023-01-13T13:15:51.598Z,99328.88
2023-01-13T13:18:20.466Z,99339.63
2023-01-13T13:20:56.165Z,99354.88
2023-01-13T13:24:03.090Z,99350.25
2023-01-13T13:26:42.425Z,99350.75
2023-01-13T13:30:02.117Z,99376.38
2023-01-13T13:32:47.667Z,99371.00
2023-01-13T13:35:51.858Z,99371.97
2023-01-13T13:38:45.968Z,99375.81
2023-01-13T13:41:42.684Z,99365.06
2023-01-13T13:44:37.924Z,99369.97
2023-01-13T13:47:07.455Z,99363.19
2023-01-13T13:49:37.986Z,99361.69
2023-01-13T13:52:12.871Z,99386.03
2023-01-13T13:54:47.637Z,99362.88
2023-01-13T13:57:20.681Z,99371.72
2023-01-13T13:59:56.149Z,99371.69
2023-01-13T14:02:38.279Z,99358.47
2023-01-13T14:05:34.532Z,99340.84
2023-01-13T14:08:18.982Z,99352.53
2023-01-13T14:10:48.369Z,99347.59
2023-01-13T14:13:31.756Z,99346.16
2023-01-13T14:16:11.110Z,99346.31
2023-01-13T14:18:47.738Z,99352.97
2023-01-13T14:21:29.214Z,99346.25
2023-01-13T14:24:10.598Z,99342.53
2023-01-13T14:26:39.411Z,99361.31
2023-01-13T14:29:10.240Z,99349.47
2023-01-13T14:31:40.817Z,99358.66
2023-01-13T14:34:31.207Z,99352.41
2023-01-13T14:36:59.920Z,99352.13
2023-01-13T14:39:38.888Z,99374.75
2023-01-13T14:42:14.436Z,99362.53
2023-01-13T14:44:50.559Z,99369.44
2023-01-13T14:47:22.955Z,99375.28
2023-01-13T14:50:12.997Z,99373.47
2023-01-13T14:52:54.651Z,99382.66
2023-01-13T14:55:38.532Z,99378.09
2023-01-13T14:58:29.519Z,99380.53
2023-01-13T15:01:36.456Z,99377.63
2023-01-13T15:04:38.211Z,99398.44
2023-01-13T15:07:08.184Z,99391.41
2023-01-13T15:09:45.771Z,99408.53
2023-01-13T15:12:44.293Z,99408.75
2023-01-13T15:15:36.881Z,99410.94
2023-01-13T15:18:17.024Z,99403.81
2023-01-13T15:20:45.742Z,99415.97
2023-01-13T15:23:14.161Z,99416.72
2023-01-13T15:25:49.828Z,99422.50
2023-01-13T15:28:26.032Z,99423.69
2023-01-13T15:31:00.526Z,99432.03
2023-01-13T15:33:29.137Z,99438.53
2023-01-13T15:35:57.801Z,99443.03
2023-01-13T15:41:38.988Z,99429.28
2023-01-13T15:44:24.801Z,99438.09
2023-01-13T15:46:53.491Z,99451.06
2023-01-13T15:49:44.173Z,99440.91
2023-01-13T15:52:26.489Z,99436.25
2023-01-13T15:54:55.730Z,99430.94
2023-01-13T15:57:33.215Z,99430.28
2023-01-13T16:00:13.433Z,99439.63
2023-01-13T16:02:41.964Z,99450.59
2023-01-13T16:05:10.504Z,99453.66
2023-01-13T16:07:39.109Z,99464.34
2023-01-13T16:10:17.178Z,99470.84
2023-01-13T16:12:45.699Z,99471.03
2023-01-13T16:15:22.236Z,99476.63
2023-01-13T16:17:57.615Z,99478.72
2023-01-13T16:20:26.399Z,99476.72
2023-01-13T16:22:54.770Z,99481.47
2023-01-13T16:25:26.899Z,99481.84
2023-01-13T16:27:55.349Z,99485.44
2023-01-13T16:30:37.864Z,99486.78
2023-01-13T16:33:05.934Z,99482.97
2023-01-13T16:35:35.327Z,99492.94
2023-01-13T16:38:03.839Z,99488.00
2023-01-13T16:40:37.215Z,99486.00
2023-01-13T16:43:06.868Z,99476.63
2023-01-13T16:45:35.395Z,99488.75
2023-01-13T16:48:04.445Z,99490.09
2023-01-13T16:50:41.642Z,99496.72
2023-01-13T16:53:11.049Z,99495.31
2023-01-13T16:55:41.203Z,99511.63
2023-01-13T16:58:19.279Z,99513.13
2023-01-13T17:00:48.741Z,99517.41
2023-01-13T17:03:17.520Z,99522.19
2023-01-13T17:05:47.999Z,99526.22
2023-01-13T17:08:19.201Z,99537.66
2023-01-13T17:10:48.194Z,99533.72
2023-01-13T17:13:17.987Z,99535.84
2023-01-13T17:15:47.128Z,99558.81
2023-01-13T17:18:15.608Z,99552.50
2023-01-13T17:20:43.761Z,99552.50
2023-01-13T17:23:12.229Z,99564.13
2023-01-13T17:25:40.690Z,99556.16
2023-01-13T17:28:08.819Z,99562.88
2023-01-13T17:30:37.376Z,99564.69
2023-01-13T17:33:06.089Z,99571.66
2023-01-13T17:35:34.080Z,99576.53
2023-01-13T17:38:03.080Z,99575.81
2023-01-13T17:40:31.553Z,99576.69
2023-01-13T17:43:00.049Z,99578.47
2023-01-13T17:45:28.176Z,99581.13
2023-01-13T17:47:59.654Z,99588.78
2023-01-13T17:50:28.224Z,99574.13
2023-01-13T17:52:56.746Z,99592.22
2023-01-13T17:55:25.341Z,99591.56
2023-01-13T17:57:53.938Z,99589.81
2023-01-13T18:00:22.651Z,99592.56
2023-01-13T18:02:51.097Z,99597.59
2023-01-13T18:05:19.513Z,99602.00
2023-01-13T18:07:47.930Z,99591.28
2023-01-13T18:10:16.099Z,99596.19
2023-01-13T18:12:44.175Z,99601.22
2023-01-13T18:15:12.646Z,99608.47
2023-01-13T18:17:41.081Z,99612.13
2023-01-13T18:20:28.460Z,99599.22
2023-01-13T18:23:14.085Z,99609.66
2023-01-13T18:25:59.350Z,99618.00
2023-01-13T18:28:27.762Z,99616.81
2023-01-13T18:30:56.277Z,99627.44
2023-01-13T18:33:25.016Z,99632.91
2023-01-13T18:35:53.542Z,99636.03
2023-01-13T18:38:22.080Z,99639.63
2023-01-13T18:40:50.546Z,99644.97
2023-01-13T18:43:17.987Z,99635.28
2023-01-13T18:45:52.119Z,99648.44
2023-01-13T18:48:20.669Z,99646.41
2023-01-13T18:50:49.080Z,99649.22
2023-01-13T18:53:17.628Z,99667.34
2023-01-13T18:55:45.832Z,99671.53
2023-01-13T18:58:14.398Z,99680.69
2023-01-13T19:00:42.784Z,99683.00
2023-01-13T19:03:12.797Z,99680.50
2023-01-13T19:05:41.077Z,99685.69
2023-01-13T19:08:09.957Z,99683.22
2023-01-13T19:10:39.941Z,99687.06
2023-01-13T19:13:08.432Z,99696.53
2023-01-13T19:15:38.422Z,99688.13
2023-01-13T19:18:06.704Z,99696.38
2023-01-13T19:20:35.084Z,99695.88
2023-01-13T19:23:03.515Z,99702.19
2023-01-13T19:25:32.070Z,99712.47
2023-01-13T19:28:00.261Z,99708.66
2023-01-13T19:30:28.792Z,99724.09
2023-01-13T19:32:57.444Z,99726.09
2023-01-13T19:35:25.913Z,99734.03
2023-01-13T19:37:54.463Z,99741.22
2023-01-13T19:40:22.902Z,99741.00
2023-01-13T19:43:07.898Z,99753.25
2023-01-13T19:45:36.537Z,99744.00
2023-01-13T19:48:05.882Z,99744.09
2023-01-13T19:50:38.733Z,99751.13
2023-01-13T19:53:08.415Z,99758.25
2023-01-13T19:55:37.066Z,99763.22
2023-01-13T19:58:05.970Z,99761.06
2023-01-13T20:00:34.973Z,99764.53
2023-01-13T20:03:08.107Z,99768.81
2023-01-13T20:05:36.866Z,99769.31
2023-01-13T20:08:05.696Z,99773.28
2023-01-13T20:10:33.982Z,99781.09
2023-01-13T20:13:02.312Z,99781.88
2023-01-13T20:15:31.172Z,99778.59
2023-01-13T20:18:00.587Z,99785.72
2023-01-13T20:20:28.807Z,99793.41
2023-01-13T20:22:58.140Z,99796.34
2023-01-13T20:25:28.825Z,99790.75
2023-01-13T20:27:58.627Z,99795.03
2023-01-13T20:30:26.917Z,99804.16
2023-01-13T20:32:55.679Z,99794.66
2023-01-13T20:35:29.668Z,99806.28
2023-01-13T20:37:58.364Z,99804.44
2023-01-13T20:40:26.908Z,99814.09
2023-01-13T20:42:54.718Z,99816.41
2023-01-13T20:45:23.496Z,99815.06
2023-01-13T20:47:52.084Z,99811.09
2023-01-13T20:50:20.688Z,99821.56
2023-01-13T20:52:49.390Z,99808.63
2023-01-13T20:55:17.519Z,99825.75
2023-01-13T20:57:48.676Z,99821.25
2023-01-13T21:00:17.587Z,99816.81
2023-01-13T21:02:46.430Z,99828.25
2023-01-13T21:05:15.004Z,99833.56
2023-01-13T21:07:43.523Z,99832.25
2023-01-13T21:10:12.549Z,99840.38
2023-01-13T21:12:58.274Z,99844.88
2023-01-13T21:15:27.530Z,99845.03
2023-01-13T21:18:13.318Z,99853.00
2023-01-13T21:20:41.797Z,99850.34
2023-01-13T21:23:11.344Z,99851.88
2023-01-13T21:25:40.279Z,99861.84
2023-01-13T21:28:11.625Z,99866.47
2023-01-13T21:30:40.832Z,99870.78
2023-01-13T21:33:09.276Z,99863.19
2023-01-13T21:35:40.231Z,99862.88
2023-01-13T21:38:08.738Z,99864.50
2023-01-13T21:40:37.449Z,99863.03
2023-01-13T21:43:23.200Z,99872.31
2023-01-13T21:46:09.098Z,99870.19
2023-01-13T21:48:37.776Z,99879.09
2023-01-13T21:51:06.351Z,99892.69
2023-01-13T21:53:34.828Z,99887.53
2023-01-13T21:56:03.345Z,99892.34
2023-01-13T21:58:31.912Z,99879.28
2023-01-13T22:01:04.137Z,99884.09
2023-01-13T22:03:54.778Z,99891.53
2023-01-13T22:06:24.027Z,99889.69
2023-01-13T22:08:53.985Z,99893.88
2023-01-13T22:11:22.501Z,99902.31
2023-01-13T22:14:10.220Z,99903.63
2023-01-13T22:16:49.424Z,99910.44
2023-01-13T22:19:18.335Z,99910.78
2023-01-13T22:21:46.912Z,99905.63
2023-01-13T22:24:15.326Z,99909.28
2023-01-13T22:26:43.735Z,99902.16
2023-01-13T22:29:12.157Z,99919.41
2023-01-13T22:31:40.846Z,99922.88
2023-01-13T22:34:11.451Z,99911.09
2023-01-13T22:36:39.673Z,99918.72
2023-01-13T22:39:08.259Z,99935.78
2023-01-13T22:41:36.782Z,99933.31
2023-01-13T22:44:05.220Z,99931.66
2023-01-13T22:46:33.342Z,99931.34
2023-01-13T22:49:01.435Z,99928.00
2023-01-13T22:51:30.546Z,99935.81
2023-01-13T22:53:59.110Z,99921.53
2023-01-13T22:56:28.433Z,99932.13
2023-01-13T22:58:59.773Z,99932.97
2023-01-13T23:01:32.018Z,99929.47
2023-01-13T23:04:00.621Z,99928.66
2023-01-13T23:06:31.787Z,99928.66
2023-01-13T23:09:01.400Z,99937.44
2023-01-13T23:11:31.432Z,99928.00
2023-01-13T23:14:06.584Z,99938.44
2023-01-13T23:16:39.148Z,99942.09
2023-01-13T23:19:09.216Z,99936.78
2023-01-13T23:21:39.444Z,99939.28
2023-01-13T23:24:08.992Z,99934.97
2023-01-13T23:26:38.066Z,99945.22
2023-01-13T23:29:12.148Z,99941.59
2023-01-13T23:31:40.985Z,99937.97
2023-01-13T23:34:09.228Z,99934.16
2023-01-13T23:36:41.078Z,99927.66
2023-01-13T23:39:09.557Z,99942.25
2023-01-13T23:41:38.118Z,99949.84
2023-01-13T23:44:06.984Z,99941.91
2023-01-13T23:46:35.953Z,99941.91
2023-01-13T23:49:05.004Z,99959.13
2023-01-13T23:51:33.498Z,99955.50
2023-01-13T23:54:02.263Z,99954.78
2023-01-13T23:56:33.030Z,99962.59
2023-01-13T23:59:02.183Z,99956.28
